Agua Nueva, Texas
Current Conditions -  °F | °C
As of 4:35 PM on Wednesday 22 Oct 2014 (Local Time) from KHBV Reporting Station
Clear Clear  
Wind Chill: 85°   Ceiling: Unl
Heat Index: 85°   Visibility: 10mi
Dew Point: 59°   Wind: 10mph
Humidity: 40%   Direction: 90°E
Pressure: 30"   Gusts: 17mph
Location:  27.0695°N, 98.7494°W
Report Text: KHBV 222135Z AUTO 09009G15KT 10SM CLR 30/15 A3000 RMK AO2 T02960148
Loading
Personal Weather Stations






























Interactive Weather Map
Tropical Storm Tracking
New forecast layout! Learn more

10-Day Weather Forecast

Advertisements
Track Severe Weather on mobile